This is the latest recevied weather packets stored in our database for station/object K4SPB-4. If no packets are shown the sender has not sent any weather packets the latest 10 day(s).
| Time | Temp. | Humidity | Pressure | Rain* | Wind** | Luminosity | Snow |
|---|---|---|---|---|---|---|---|
| 1777776632 | 15° C | 45% | 1018.4 hPa | 0 mm | - | - | - |
| 1777771834 | 16.67° C | 40% | 1017.2 hPa | 0 mm | - | - | - |
| 1777771233 | 17.22° C | 39% | 1017.2 hPa | 0 mm | - | - | - |
| 1777770029 | 17.78° C | 36% | 1017 hPa | 0 mm | - | - | - |
| 1777763425 | 20° C | 33% | 1016 hPa | 0 mm | - | - | - |
| 1777753226 | 20.56° C | 34% | 1016.1 hPa | 0 mm | - | - | - |
| 1777751419 | 20° C | 36% | 1016.4 hPa | 0 mm | - | - | - |
| 1777747223 | 19.44° C | 35% | 1016.8 hPa | 0 mm | - | - | - |
| 1777746621 | 20° C | 36% | 1017 hPa | 0 mm | - | - | - |
| 1777741221 | 18.89° C | 36% | 1017.9 hPa | 0 mm | - | - | - |
| 1777738832 | 18.33° C | 36% | 1018.1 hPa | 0 mm | - | - | - |
| 1777738229 | 18.33° C | 36% | 1018.1 hPa | 0 mm | - | - | - |
| 1777737045 | 17.78° C | 38% | 1018.2 hPa | 0 mm | - | - | - |
| 1777734616 | 16.67° C | 40% | 1018 hPa | 0 mm | - | - | - |
| 1777731023 | 15° C | 51% | 1018 hPa | 0 mm | - | - | - |
| 1777727735 | 12.78° C | 65% | 1017.6 hPa | 0 mm | - | - | - |
| 1777726830 | 12.22° C | 67% | 1017.6 hPa | 0 mm | - | - | - |
| 1777725624 | 10.56° C | 79% | 1017.3 hPa | 0 mm | - | - | - |
| 1777725022 | 10° C | 82% | 1017.3 hPa | 0 mm | - | - | - |
| 1777720848 | 7.22° C | 86% | 1016.6 hPa | 0 mm | - | - | - |
| 1777719023 | 7.78° C | 85% | 1016.3 hPa | 0 mm | - | - | - |
| 1777717233 | 7.78° C | 82% | 1016.1 hPa | 0 mm | - | - | - |
| 1777706432 | 12.22° C | 56% | 1015.9 hPa | 0 mm | - | - | - |
| 1777698626 | 13.33° C | 51% | 1016.2 hPa | 0 mm | - | - | - |
| 1777697421 | 13.33° C | 50% | 1016.3 hPa | 0 mm | - | - | - |
* Rain latest hour (hover to see other rain measurements)
** Current wind speed in m/s (hover to see current wind gust speed)